Nearby METAR Reports

 

K1A5 - Macon/Franklin, North Carolina, USA
Distance from station: WSW 16mi, 25km
Updated: Mon, 23-Oct-2017 2:05am EDT
Overcast
Overcast
 Wind from calm
Wind: Calm
Temperature: 63°F , 17°C
Dew Point: 59°F , 15°C
Humidity: 88%
Barometer: 30.15 inHg , 1021 hPa
Clouds: Overcast
Visibility: 10 miles , 16 km
Cloud details: Mostly cloudy 2500 ft
Overcast 3100 ft
2017/10/23 06:05 K1A5 230605Z AUTO 00000KT 10SM BKN025 OVC031 17/15 A3015 RMK AO2 T01660152
KAVL - Asheville, North Carolina, USA
Distance from station: ENE 36mi, 59km
Updated: Mon, 23-Oct-2017 1:54am EDT
Light rain, Mist, Overcast
Light rain, Mist, Overcast
 Wind from SSE
Wind: SSE 9 mph , 15 km/h, Gust: 18 mph , 30 km/h
Temperature: 63°F , 17°C
Dew Point: 61°F , 16°C
Humidity: 94%
Barometer: 30.20 inHg , 1022.7 hPa
Summary: Light rain, Mist
Clouds: Overcast
Visibility: 6 miles , 10 km
Cloud details: Overcast 600 ft
2017/10/23 05:54 KAVL 230554Z AUTO 15008G16KT 6SM -RA BR OVC006 17/16 A3020 RMK AO2 CIG 004V009 SLP206 P0002 60004 T01720161 10189 20161 58020
 
KRHP - Andrews, North Carolina, USA
Distance from station: WSW 40mi, 64km
Updated: Mon, 23-Oct-2017 2:00am EDT
Overcast
Overcast
 Wind from WNW
Wind: WNW 3 mph , 6 km/h
Temperature: 66°F , 19°C
Dew Point: 59°F , 15°C
Humidity: 78%
Barometer: 30.11 inHg , 1019.6 hPa
Clouds: Overcast
Visibility: 10 miles , 16 km
Cloud details: Overcast 3200 ft
2017/10/23 06:00 KRHP 230600Z AUTO 30003KT 10SM OVC032 19/15 A3011 RMK AO2 T01910147
KLQK - Pickens, South Carolina, USA
Distance from station: SE 42mi, 68km
Updated: Mon, 23-Oct-2017 2:15am EDT
Light rain, Overcast
Light rain, Overcast
 Wind from E
Wind: E 5 mph , 7 km/h
Temperature: 64°F , 18°C
Dew Point: 64°F , 18°C
Humidity: 100%
Barometer: 30.15 inHg , 1021 hPa
Summary: Light rain
Clouds: Overcast
Visibility: 5 miles , 8 km
Cloud details: Overcast 1300 ft
2017/10/23 06:15 KLQK 230615Z AUTO 10004KT 5SM -RA OVC013 18/18 A3015 RMK AO2 T01820182
 
KCEU - Clemson, South Carolina, USA
Distance from station: SSE 46mi, 75km
Updated: Mon, 23-Oct-2017 1:54am EDT
Light rain, Mist, Overcast
Light rain, Mist, Overcast
 Wind from NE
Wind: NE 5 mph , 7 km/h
Temperature: 64°F , 18°C
Dew Point: 64°F , 18°C
Humidity: 100%
Barometer: 30.16 inHg , 1021.3 hPa
Summary: Light rain, Mist
Clouds: Overcast
Visibility: 6 miles , 10 km
Cloud details: Overcast 1200 ft
2017/10/23 05:54 KCEU 230554Z AUTO 04004KT 6SM -RA BR OVC012 18/18 A3016 RMK AO2 RAB42 SLP204 P0003 60004 T01830183 10211 20183 58023 $
KTOC - Toccoa, Georgia, USA
Distance from station: S 49mi, 79km
Updated: Mon, 23-Oct-2017 1:55am EDT
Mist, Overcast
Mist, Overcast
 Wind from ENE
Wind: ENE 5 mph , 7 km/h
Temperature: 68°F , 20°C
Dew Point: 66°F , 19°C
Humidity: 94%
Barometer: 30.14 inHg , 1020.7 hPa
Summary: Mist
Clouds: Overcast
Visibility: 3 miles , 5 km
Cloud details: Overcast 400 ft
2017/10/23 05:55 KTOC 230555Z AUTO 07004KT 3SM BR OVC004 20/19 A3014 RMK AO2 T01970192 10228 20196 402640135